Time;durP1;ratioP1;P1;durP2;ratioP2;P2;SDS_P1;SDS_P2;PMS_P1;PMS_P2;Temp;Humidity;BMP_temperature;BMP_pressure;BME280_temperature;BME280_humidity;BME280_pressure;Samples;Min_cycle;Max_cycle;Signal;HPM_P1;HPM_P2
2022/05/26 00:02:00;;;;;;;0.82;0.38;;;16.50;14.10;;;;;;5012756;28;34157;-79
2022/05/26 00:04:27;;;;;;;0.82;0.32;;;16.50;14.20;;;;;;5013813;28;34176;-78
2022/05/26 00:06:53;;;;;;;1.48;0.40;;;16.50;14.20;;;;;;5011170;28;34485;-80
2022/05/26 00:09:19;;;;;;;0.30;0.30;;;16.40;14.10;;;;;;5012733;28;35690;-83
2022/05/26 00:11:45;;;;;;;0.30;0.30;;;16.50;14.10;;;;;;5011084;28;34161;-79
2022/05/26 00:14:11;;;;;;;0.98;0.47;;;16.50;14.60;;;;;;5011813;28;34357;-75
2022/05/26 00:16:42;;;;;;;0.68;0.50;;;16.50;14.10;;;;;;4995502;28;34472;-78
2022/05/26 00:19:08;;;;;;;0.55;0.40;;;16.50;14.30;;;;;;5010905;28;36758;-76
2022/05/26 00:21:35;;;;;;;0.63;0.35;;;16.50;14.10;;;;;;4977392;28;34089;-77
2022/05/26 00:24:01;;;;;;;0.47;0.40;;;16.50;14.30;;;;;;5013254;28;34122;-78
2022/05/26 00:26:27;;;;;;;3.80;0.43;;;16.50;14.20;;;;;;5012528;28;34224;-81
2022/05/26 00:28:53;;;;;;;1.65;0.43;;;16.50;14.20;;;;;;5012321;28;36217;-80
2022/05/26 00:31:19;;;;;;;1.50;0.45;;;16.50;14.20;;;;;;5011538;28;34477;-78
2022/05/26 00:33:45;;;;;;;1.95;0.40;;;16.50;14.30;;;;;;5011193;28;33688;-78
2022/05/26 00:36:15;;;;;;;0.95;0.47;;;16.50;14.30;;;;;;5011585;28;34186;-76
2022/05/26 00:38:41;;;;;;;0.63;0.47;;;16.50;14.90;;;;;;5026878;28;35479;-80
2022/05/26 00:41:11;;;;;;;1.25;0.40;;;16.50;14.40;;;;;;5008689;28;34444;-79
2022/05/26 00:43:42;;;;;;;0.90;0.40;;;16.50;14.70;;;;;;4993872;28;34127;-79
2022/05/26 00:46:22;;;;;;;1.73;0.40;;;16.50;14.90;;;;;;5008933;28;34064;-80
2022/05/26 00:48:53;;;;;;;1.00;0.57;;;16.60;15.40;;;;;;4974476;28;35696;-79
2022/05/26 00:51:26;;;;;;;1.02;0.60;;;16.50;14.80;;;;;;4977941;28;34068;-77
2022/05/26 00:53:56;;;;;;;0.47;0.43;;;16.50;14.90;;;;;;4976652;28;34212;-77
2022/05/26 00:56:33;;;;;;;2.65;0.40;;;16.50;14.60;;;;;;5000341;28;34442;-81
2022/05/26 00:59:07;;;;;;;3.50;0.60;;;16.50;14.80;;;;;;5013751;28;36392;-79
2022/05/26 01:01:33;;;;;;;2.17;0.60;;;16.60;15.00;;;;;;5032169;28;34293;-78
2022/05/26 01:04:10;;;;;;;3.03;0.57;;;16.50;14.50;;;;;;5014773;28;34051;-77
2022/05/26 01:06:47;;;;;;;0.98;0.60;;;16.50;15.20;;;;;;5032668;28;34812;-77
2022/05/26 01:09:14;;;;;;;0.35;0.35;;;16.50;15.30;;;;;;4999510;28;35545;-78
2022/05/26 01:11:41;;;;;;;0.50;0.50;;;16.50;14.80;;;;;;5033634;28;34282;-79
2022/05/26 01:14:18;;;;;;;0.90;0.50;;;16.50;14.90;;;;;;4998226;28;34003;-77
2022/05/26 01:17:05;;;;;;;1.05;0.50;;;16.50;15.20;;;;;;4983030;28;34539;-78
2022/05/26 01:20:01;;;;;;;1.20;0.55;;;16.50;15.40;;;;;;5014004;28;35562;-77
2022/05/26 01:22:54;;;;;;;2.97;0.63;;;16.50;16.50;;;;;;5015865;28;34424;-77
2022/05/26 01:25:44;;;;;;;1.48;0.60;;;16.50;16.00;;;;;;5015279;28;34213;-77
2022/05/26 01:28:45;;;;;;;1.45;0.40;;;16.50;16.50;;;;;;4981711;28;34073;-77
2022/05/26 01:31:38;;;;;;;0.40;0.40;;;16.50;17.70;;;;;;5001235;28;35663;-77
2022/05/26 01:34:22;;;;;;;0.30;0.30;;;16.50;16.50;;;;;;5012865;28;34159;-77
2022/05/26 01:37:23;;;;;;;0.82;0.50;;;16.40;16.50;;;;;;5014651;28;34158;-77
2022/05/26 01:40:24;;;;;;;3.78;0.77;;;16.40;16.80;;;;;;5016623;28;34198;-80
2022/05/26 01:43:02;;;;;;;1.10;0.55;;;16.40;17.40;;;;;;5003129;28;36030;-77
2022/05/26 01:45:57;;;;;;;1.77;0.70;;;16.30;16.50;;;;;;4998254;28;34220;-77
2022/05/26 01:48:51;;;;;;;0.40;0.40;;;16.30;17.30;;;;;;5014727;28;34175;-77
2022/05/26 01:51:36;;;;;;;2.70;0.57;;;16.30;16.90;;;;;;5012617;28;34395;-77
2022/05/26 01:54:18;;;;;;;2.75;0.70;;;16.20;16.60;;;;;;5016047;28;35202;-78
2022/05/26 01:57:00;;;;;;;1.45;0.50;;;16.20;17.80;;;;;;4997268;28;33684;-79
2022/05/26 01:59:47;;;;;;;0.57;0.32;;;16.20;17.70;;;;;;5015654;28;34264;-77
2022/05/26 02:02:19;;;;;;;2.60;0.50;;;16.20;16.90;;;;;;5000665;28;34147;-77
2022/05/26 02:04:58;;;;;;;1.65;0.47;;;16.10;16.50;;;;;;5014823;28;35496;-77
2022/05/26 02:07:34;;;;;;;0.77;0.40;;;16.10;16.80;;;;;;5013888;28;34217;-77
2022/05/26 02:10:05;;;;;;;0.80;0.47;;;16.10;16.90;;;;;;5011817;28;34110;-77
2022/05/26 02:12:56;;;;;;;1.23;0.50;;;16.10;16.80;;;;;;5013319;28;34126;-79
2022/05/26 02:15:36;;;;;;;0.40;0.30;;;16.10;18.30;;;;;;4997267;28;35655;-77
2022/05/26 02:18:10;;;;;;;2.90;0.63;;;16.00;17.30;;;;;;5004800;28;34024;-77
2022/05/26 02:20:50;;;;;;;0.88;0.60;;;16.00;16.90;;;;;;5000540;28;34241;-77
2022/05/26 02:23:26;;;;;;;0.80;0.60;;;15.90;18.10;;;;;;4999114;28;34340;-78
2022/05/26 02:25:53;;;;;;;3.97;0.57;;;15.90;17.40;;;;;;5032937;28;34207;-76
2022/05/26 02:28:20;;;;;;;0.85;0.43;;;15.80;16.80;;;;;;5013646;28;34162;-77
2022/05/26 02:30:48;;;;;;;1.15;0.60;;;15.80;16.90;;;;;;4998248;28;34025;-77
2022/05/26 02:33:15;;;;;;;2.55;0.80;;;15.80;17.10;;;;;;4999270;28;34160;-77
2022/05/26 02:35:44;;;;;;;0.77;0.43;;;15.80;17.20;;;;;;4997647;28;35132;-77
2022/05/26 02:38:14;;;;;;;2.05;0.60;;;15.80;17.50;;;;;;5014040;28;33826;-77
2022/05/26 02:40:42;;;;;;;0.95;0.50;;;15.80;17.50;;;;;;5015018;28;34281;-78
2022/05/26 02:43:21;;;;;;;2.28;0.50;;;15.80;17.50;;;;;;5015073;28;34310;-78
2022/05/26 02:46:03;;;;;;;1.40;0.60;;;15.80;19.30;;;;;;5014640;28;35814;-77
2022/05/26 02:48:53;;;;;;;0.40;0.35;;;15.80;19.00;;;;;;5014835;28;34141;-77
2022/05/26 02:51:40;;;;;;;0.40;0.40;;;15.70;19.50;;;;;;5010090;28;34496;-80
2022/05/26 02:54:36;;;;;;;2.80;0.60;;;15.70;20.50;;;;;;5011734;28;33826;-77
2022/05/26 02:57:21;;;;;;;0.35;0.35;;;15.80;20.00;;;;;;4997603;28;35684;-77
2022/05/26 03:00:03;;;;;;;0.68;0.50;;;15.80;20.30;;;;;;5011145;28;34066;-77
2022/05/26 03:02:51;;;;;;;0.40;0.40;;;15.80;19.80;;;;;;5011089;28;34170;-77
2022/05/26 03:05:26;;;;;;;1.85;0.40;;;15.70;19.70;;;;;;4993435;28;34348;-77
2022/05/26 03:07:56;;;;;;;0.95;0.43;;;15.80;18.50;;;;;;4993253;28;35542;-78
2022/05/26 03:10:26;;;;;;;1.08;0.50;;;15.70;18.20;;;;;;4993337;28;34207;-77
2022/05/26 03:12:54;;;;;;;0.85;0.52;;;15.80;18.50;;;;;;4993748;28;34410;-77
2022/05/26 03:15:21;;;;;;;1.13;0.50;;;15.80;18.40;;;;;;5009798;28;33839;-78
2022/05/26 03:17:47;;;;;;;0.43;0.40;;;15.80;18.30;;;;;;5011392;28;34611;-79
2022/05/26 03:20:13;;;;;;;2.15;0.50;;;15.80;18.40;;;;;;5011430;28;33703;-77
2022/05/26 03:22:39;;;;;;;0.40;0.40;;;15.70;18.50;;;;;;5008213;28;33707;-79
2022/05/26 03:25:06;;;;;;;1.70;0.55;;;15.70;18.70;;;;;;5010896;28;34250;-79
2022/05/26 03:27:32;;;;;;;1.40;0.60;;;15.70;19.20;;;;;;5009823;28;35655;-77
2022/05/26 03:29:58;;;;;;;0.50;0.50;;;15.60;19.40;;;;;;5009575;28;34354;-76
2022/05/26 03:32:25;;;;;;;1.85;0.40;;;15.60;19.40;;;;;;5009094;28;34262;-77
2022/05/26 03:42:57;;;;;;;1.65;0.60;;;15.40;20.20;;;;;;5011277;28;34384;-77
2022/05/26 03:45:24;;;;;;;2.08;0.60;;;15.40;20.50;;;;;;5008787;28;34166;-78
2022/05/26 03:47:50;;;;;;;0.63;0.50;;;15.30;21.60;;;;;;5007982;28;36528;-77
2022/05/26 03:50:17;;;;;;;0.55;0.50;;;15.30;21.10;;;;;;4987885;28;34181;-77
2022/05/26 03:52:42;;;;;;;0.50;0.50;;;15.30;21.50;;;;;;4997991;28;34449;-77
2022/05/26 03:55:10;;;;;;;1.35;0.30;;;15.20;21.90;;;;;;4976074;28;34141;-77
2022/05/26 03:57:36;;;;;;;0.82;0.50;;;15.20;22.50;;;;;;4985917;28;36003;-77
2022/05/26 04:00:03;;;;;;;0.85;0.45;;;15.20;22.30;;;;;;4995208;28;34163;-78
2022/05/26 04:02:29;;;;;;;2.15;0.50;;;15.10;23.00;;;;;;5011801;28;34197;-79
2022/05/26 04:04:56;;;;;;;1.02;0.50;;;15.10;22.90;;;;;;4994700;28;34586;-79
2022/05/26 04:07:22;;;;;;;0.47;0.40;;;15.10;23.60;;;;;;4992832;28;36060;-77
2022/05/26 04:09:48;;;;;;;1.33;0.50;;;15.00;23.50;;;;;;4992041;28;33974;-78
2022/05/26 04:12:14;;;;;;;0.28;0.28;;;15.10;23.60;;;;;;4975573;28;34422;-76
2022/05/26 04:14:39;;;;;;;0.40;0.40;;;15.10;23.70;;;;;;4974679;28;34142;-77
2022/05/26 04:17:05;;;;;;;1.13;0.50;;;15.10;23.70;;;;;;4987189;28;36016;-79
2022/05/26 04:19:31;;;;;;;0.85;0.40;;;15.10;23.80;;;;;;4972395;28;34348;-77
2022/05/26 04:24:40;;;;;;;0.70;0.50;;;15.10;24.70;;;;;;4962965;28;34199;-78
2022/05/26 04:27:06;;;;;;;0.38;0.20;;;15.10;24.20;;;;;;4950731;28;36072;-80
2022/05/26 04:29:33;;;;;;;0.32;0.30;;;15.10;24.60;;;;;;4992532;28;34145;-78
2022/05/26 04:32:00;;;;;;;0.20;0.20;;;15.10;24.60;;;;;;4974425;28;34246;-76
2022/05/26 04:34:26;;;;;;;0.40;0.30;;;15.10;24.50;;;;;;5008364;28;34395;-80
2022/05/26 04:36:52;;;;;;;0.30;0.20;;;15.10;25.00;;;;;;4990789;28;35949;-78
2022/05/26 04:39:18;;;;;;;0.20;0.20;;;15.10;25.10;;;;;;4972161;28;34289;-77
2022/05/26 04:41:45;;;;;;;0.10;0.10;;;15.10;25.10;;;;;;4992786;28;34165;-79
2022/05/26 04:44:13;;;;;;;0.70;0.22;;;15.10;25.80;;;;;;4981008;28;34148;-80
2022/05/26 04:46:39;;;;;;;0.20;0.20;;;15.10;26.10;;;;;;4962959;28;35955;-78
2022/05/26 04:49:06;;;;;;;0.22;0.22;;;15.10;25.80;;;;;;5004118;28;34099;-79
2022/05/26 04:51:34;;;;;;;0.20;0.20;;;15.10;25.80;;;;;;4980317;28;34476;-77
2022/05/26 04:54:01;;;;;;;0.80;0.50;;;15.10;25.90;;;;;;4971591;28;34141;-76
2022/05/26 04:56:27;;;;;;;0.30;0.30;;;15.20;25.70;;;;;;4971138;28;35956;-76
2022/05/26 04:58:53;;;;;;;0.50;0.40;;;15.20;25.60;;;;;;4990308;28;34224;-77
2022/05/26 05:01:20;;;;;;;0.30;0.30;;;15.30;25.60;;;;;;4979577;28;34324;-77
2022/05/26 05:03:47;;;;;;;0.20;0.20;;;15.30;25.70;;;;;;5003339;28;34063;-77
2022/05/26 05:06:15;;;;;;;1.40;0.38;;;15.40;25.60;;;;;;5004313;28;35737;-77
2022/05/26 05:08:42;;;;;;;0.43;0.30;;;15.40;25.40;;;;;;4971043;28;33549;-79
2022/05/26 05:11:09;;;;;;;0.25;0.25;;;15.50;25.40;;;;;;4979293;28;34131;-77
2022/05/26 05:13:36;;;;;;;0.40;0.40;;;15.50;25.30;;;;;;5005202;28;34285;-80
2022/05/26 05:16:08;;;;;;;0.45;0.35;;;15.60;25.10;;;;;;4992639;28;35816;-78
2022/05/26 05:18:34;;;;;;;0.25;0.25;;;15.70;25.60;;;;;;5007426;28;34267;-76
2022/05/26 05:21:07;;;;;;;1.90;0.40;;;15.70;24.90;;;;;;4989535;28;34181;-78
2022/05/26 05:23:37;;;;;;;0.35;0.35;;;15.80;25.40;;;;;;4991565;28;34095;-77
2022/05/26 05:26:04;;;;;;;0.90;0.43;;;15.80;24.60;;;;;;5006929;28;34134;-77
2022/05/26 05:28:35;;;;;;;0.82;0.38;;;15.90;24.50;;;;;;4970669;28;34200;-78
2022/05/26 05:31:07;;;;;;;0.20;0.20;;;16.00;24.70;;;;;;4995471;28;34268;-77
2022/05/26 05:33:39;;;;;;;0.40;0.35;;;16.00;24.50;;;;;;4987878;28;34183;-77
2022/05/26 05:36:20;;;;;;;2.38;0.30;;;16.10;24.30;;;;;;4974591;28;36793;-77
2022/05/26 05:38:47;;;;;;;0.30;0.30;;;16.20;25.60;;;;;;5006087;28;34253;-77
2022/05/26 05:41:13;;;;;;;0.22;0.20;;;16.10;23.90;;;;;;5007252;28;34196;-77
2022/05/26 05:43:40;;;;;;;0.80;0.40;;;16.20;23.60;;;;;;5008484;28;34131;-77
2022/05/26 05:46:08;;;;;;;0.20;0.20;;;16.30;23.70;;;;;;5012101;28;35816;-77
2022/05/26 05:48:34;;;;;;;0.22;0.22;;;16.40;23.50;;;;;;4992758;28;34079;-79
2022/05/26 05:51:01;;;;;;;0.40;0.40;;;16.50;23.30;;;;;;4983775;28;34165;-76
2022/05/26 05:53:27;;;;;;;1.55;0.20;;;16.40;23.20;;;;;;4991263;28;34563;-78
2022/05/26 05:55:53;;;;;;;0.30;0.30;;;16.50;23.20;;;;;;4981904;28;35850;-78
2022/05/26 05:58:19;;;;;;;0.22;0.22;;;16.50;23.10;;;;;;5002334;28;34316;-76
2022/05/26 06:00:45;;;;;;;0.52;0.30;;;16.60;23.00;;;;;;4972871;28;34287;-77
2022/05/26 06:03:12;;;;;;;2.08;0.50;;;16.70;23.00;;;;;;4974276;28;34416;-77
2022/05/26 06:05:37;;;;;;;0.30;0.30;;;16.70;22.90;;;;;;4991401;28;35619;-77
2022/05/26 06:08:04;;;;;;;0.38;0.35;;;16.70;22.90;;;;;;4978790;28;34095;-79
2022/05/26 06:10:31;;;;;;;1.85;0.40;;;16.70;22.90;;;;;;4993496;28;33676;-77
2022/05/26 06:12:58;;;;;;;0.60;0.20;;;16.80;22.90;;;;;;4984178;28;34686;-78
2022/05/26 06:15:25;;;;;;;1.00;0.30;;;16.90;23.10;;;;;;4969719;28;35499;-79
2022/05/26 06:17:51;;;;;;;1.48;0.43;;;16.80;22.90;;;;;;5005581;28;34337;-78
2022/05/26 06:20:17;;;;;;;1.45;0.30;;;16.90;22.90;;;;;;4990812;28;34329;-77
2022/05/26 06:22:47;;;;;;;1.63;0.43;;;17.00;22.90;;;;;;4986908;28;34209;-78
2022/05/26 06:25:16;;;;;;;0.60;0.50;;;17.00;23.10;;;;;;4972194;28;36806;-78
2022/05/26 06:30:26;;;;;;;0.63;0.30;;;17.00;22.90;;;;;;5010517;28;34344;-81
2022/05/26 06:38:20;;;;;;;1.27;0.40;;;17.20;22.80;;;;;;4984905;28;34135;-77
2022/05/26 06:40:47;;;;;;;1.02;0.50;;;17.20;22.70;;;;;;4991005;28;33695;-77
2022/05/26 06:43:14;;;;;;;2.25;0.63;;;17.20;22.80;;;;;;4997720;28;34233;-76
2022/05/26 06:45:41;;;;;;;2.67;0.70;;;17.30;22.80;;;;;;4992323;28;35701;-78
2022/05/26 06:48:08;;;;;;;0.57;0.52;;;17.30;22.80;;;;;;4991544;28;35236;-75
2022/05/26 06:50:35;;;;;;;1.40;0.60;;;17.30;22.70;;;;;;4996468;28;34266;-77
2022/05/26 06:53:01;;;;;;;1.23;0.60;;;17.40;22.70;;;;;;5002998;28;34591;-80
2022/05/26 06:55:27;;;;;;;0.60;0.50;;;17.40;22.60;;;;;;4981025;28;36848;-76
2022/05/26 06:57:54;;;;;;;3.50;0.88;;;17.40;22.60;;;;;;4993051;28;34837;-78
2022/05/26 07:00:19;;;;;;;3.50;0.77;;;17.50;22.40;;;;;;4990967;28;34042;-79
2022/05/26 07:02:46;;;;;;;1.08;0.52;;;17.60;22.30;;;;;;4988353;28;34250;-77
2022/05/26 07:05:13;;;;;;;1.10;0.90;;;17.70;22.30;;;;;;4987578;28;36401;-79
2022/05/26 07:07:40;;;;;;;2.85;1.27;;;17.90;21.90;;;;;;5005931;28;34351;-80
2022/05/26 07:10:07;;;;;;;1.48;0.75;;;18.20;21.60;;;;;;4997293;28;34195;-78
2022/05/26 07:12:34;;;;;;;1.05;0.98;;;18.40;20.90;;;;;;4986821;28;34095;-79
2022/05/26 07:15:00;;;;;;;2.45;0.75;;;18.70;20.40;;;;;;5009164;28;35777;-78
2022/05/26 07:17:26;;;;;;;1.73;0.93;;;18.90;20.10;;;;;;5008181;28;34150;-77
2022/05/26 07:19:53;;;;;;;2.60;1.02;;;19.00;20.00;;;;;;4989787;28;34516;-78
2022/05/26 07:22:19;;;;;;;2.63;0.50;;;19.10;19.80;;;;;;5000411;28;34541;-79
2022/05/26 07:24:48;;;;;;;2.47;0.90;;;19.10;19.70;;;;;;4976869;28;36359;-78
2022/05/26 07:27:14;;;;;;;0.75;0.63;;;19.00;19.70;;;;;;4986812;28;34209;-79
2022/05/26 07:29:40;;;;;;;2.30;0.70;;;18.90;19.80;;;;;;5007206;28;34388;-78
2022/05/26 07:32:06;;;;;;;1.35;0.70;;;18.90;19.90;;;;;;5004001;28;34329;-78
2022/05/26 07:34:32;;;;;;;1.80;0.90;;;18.80;19.90;;;;;;4990945;28;35551;-79
2022/05/26 07:42:25;;;;;;;4.10;0.90;;;18.70;20.00;;;;;;4996373;28;34408;-79
2022/05/26 07:44:54;;;;;;;1.67;0.85;;;18.60;20.00;;;;;;4987858;28;35910;-78
2022/05/26 07:47:22;;;;;;;14.32;3.60;;;18.50;20.20;;;;;;5005700;28;35353;-79
2022/05/26 07:49:49;;;;;;;2.38;0.93;;;18.40;20.20;;;;;;5011249;28;34223;-80
2022/05/26 07:52:15;;;;;;;2.92;0.93;;;18.40;20.40;;;;;;5001440;28;34090;-78
2022/05/26 07:54:42;;;;;;;2.47;0.70;;;18.30;20.50;;;;;;4979255;28;36483;-79
2022/05/26 07:57:23;;;;;;;3.08;1.10;;;18.30;20.50;;;;;;5007753;28;33938;-79
2022/05/26 07:59:51;;;;;;;3.17;0.68;;;18.40;20.80;;;;;;4994956;28;34167;-77
2022/05/26 08:02:18;;;;;;;1.73;1.00;;;18.50;20.00;;;;;;5002889;28;34368;-78
2022/05/26 08:04:45;;;;;;;1.30;0.80;;;19.10;19.60;;;;;;4975326;28;35839;-79
2022/05/26 08:07:11;;;;;;;0.60;0.50;;;19.80;18.70;;;;;;5007651;28;34430;-78
2022/05/26 08:09:38;;;;;;;3.38;0.88;;;20.30;17.90;;;;;;5006499;28;34357;-78
2022/05/26 08:12:06;;;;;;;0.70;0.70;;;20.60;17.30;;;;;;5008214;28;34318;-77
2022/05/26 08:14:32;;;;;;;2.65;0.90;;;20.70;16.80;;;;;;4991630;28;35870;-78
2022/05/26 08:16:58;;;;;;;1.73;1.00;;;20.50;16.80;;;;;;4991596;28;34213;-78
2022/05/26 08:19:24;;;;;;;1.58;1.05;;;20.30;17.00;;;;;;5004429;28;34195;-78
2022/05/26 08:21:50;;;;;;;10.88;2.95;;;20.00;17.10;;;;;;5004833;28;34446;-77
2022/05/26 08:24:19;;;;;;;1.92;0.90;;;19.80;17.40;;;;;;5004679;28;36097;-76
2022/05/26 08:26:46;;;;;;;2.50;0.95;;;19.60;17.60;;;;;;4988141;28;34252;-77
2022/05/26 08:29:12;;;;;;;2.38;0.70;;;19.50;17.80;;;;;;5002866;28;34347;-80
2022/05/26 08:31:39;;;;;;;3.30;1.00;;;19.70;17.50;;;;;;5005304;28;34231;-78
2022/05/26 08:34:05;;;;;;;3.70;1.00;;;20.20;17.10;;;;;;4990249;28;36076;-77
2022/05/26 08:36:34;;;;;;;2.60;0.93;;;20.60;16.70;;;;;;4988496;28;34460;-78
2022/05/26 08:39:01;;;;;;;2.55;0.98;;;21.20;15.60;;;;;;5004000;28;34476;-79
2022/05/26 08:41:33;;;;;;;3.05;0.85;;;21.60;15.40;;;;;;5004425;28;34198;-78
2022/05/26 08:44:05;;;;;;;1.75;0.90;;;21.70;13.50;;;;;;4994539;28;35239;-78
2022/05/26 08:46:38;;;;;;;2.45;0.77;;;21.70;14.60;;;;;;5008120;28;34318;-79
2022/05/26 08:49:16;;;;;;;3.20;1.00;;;21.50;14.10;;;;;;5006919;28;34201;-81
2022/05/26 08:52:00;;;;;;;2.95;0.80;;;21.20;12.70;;;;;;5001646;28;34050;-79
2022/05/26 08:54:31;;;;;;;2.58;0.90;;;20.90;14.60;;;;;;5020147;28;35270;-77
2022/05/26 08:57:00;;;;;;;2.83;0.90;;;20.60;14.80;;;;;;4990498;28;34208;-78
2022/05/26 08:59:36;;;;;;;3.75;1.10;;;20.50;15.30;;;;;;4978661;28;34275;-80
2022/05/26 09:02:03;;;;;;;2.20;1.08;;;20.40;14.90;;;;;;4988111;28;34731;-78
2022/05/26 09:04:30;;;;;;;2.50;1.08;;;20.40;15.30;;;;;;5006988;28;36609;-81
2022/05/26 09:15:19;;;;;;;2.78;0.90;;;21.20;14.20;;;;;;4956708;28;34567;-78
2022/05/26 09:17:45;;;;;;;1.05;0.60;;;21.60;13.70;;;;;;4936076;28;34579;-80
2022/05/26 09:20:36;;;;;;;2.53;0.85;;;21.90;13.50;;;;;;4980389;28;34561;-78
2022/05/26 09:23:27;;;;;;;2.50;0.95;;;22.20;9.30;;;;;;4943993;28;34306;-81
2022/05/26 09:26:05;;;;;;;2.25;0.90;;;22.30;10.60;;;;;;4950679;28;36473;-81
2022/05/26 09:28:44;;;;;;;2.97;1.00;;;22.00;11.10;;;;;;4968100;28;34480;-77
2022/05/26 09:31:31;;;;;;;1.10;0.85;;;21.50;11.60;;;;;;4951031;28;34235;-78
2022/05/26 09:34:15;;;;;;;2.63;1.23;;;21.40;11.00;;;;;;4954093;28;34308;-76
2022/05/26 09:36:53;;;;;;;3.55;0.90;;;21.00;11.80;;;;;;4957184;28;34436;-81
2022/05/26 09:39:30;;;;;;;4.85;0.95;;;21.00;12.70;;;;;;4932796;28;34252;-81
2022/05/26 09:41:57;;;;;;;3.80;1.30;;;21.40;12.50;;;;;;4943096;28;34140;-80
2022/05/26 09:44:31;;;;;;;2.00;1.00;;;21.70;13.20;;;;;;4952980;28;34209;-79
2022/05/26 09:47:01;;;;;;;1.42;0.68;;;22.10;11.40;;;;;;4991233;28;36140;-79
2022/05/26 09:49:36;;;;;;;2.80;0.82;;;22.30;12.10;;;;;;4977170;28;34178;-81
2022/05/26 09:52:15;;;;;;;1.15;0.80;;;22.60;11.10;;;;;;4981034;28;34369;-78
2022/05/26 09:54:41;;;;;;;0.90;0.70;;;22.90;10.60;;;;;;4978454;28;34328;-79
2022/05/26 09:57:28;;;;;;;1.40;1.00;;;23.00;10.80;;;;;;4991415;28;35677;-78
2022/05/26 09:59:54;;;;;;;1.52;0.75;;;23.30;5.80;;;;;;4981563;28;34019;-78
2022/05/26 10:02:35;;;;;;;0.73;0.73;;;23.50;10.40;;;;;;4980138;28;34042;-79
2022/05/26 10:05:11;;;;;;;1.40;0.93;;;23.80;6.40;;;;;;4994500;28;34133;-79
2022/05/26 10:07:55;;;;;;;1.98;0.80;;;24.10;6.70;;;;;;4991318;28;35702;-79
2022/05/26 10:10:29;;;;;;;3.97;0.80;;;24.20;7.00;;;;;;4976620;28;34110;-79
2022/05/26 10:13:27;;;;;;;2.60;0.90;;;24.10;8.20;;;;;;4991183;28;34440;-77
2022/05/26 10:16:16;;;;;;;3.75;0.80;;;23.80;4.60;;;;;;4981885;28;34019;-77
2022/05/26 10:19:08;;;;;;;1.13;0.70;;;23.50;7.20;;;;;;4971923;28;35666;-78
2022/05/26 10:22:00;;;;;;;3.80;1.27;;;23.30;7.20;;;;;;4942451;28;34077;-79
2022/05/26 10:25:00;;;;;;;3.55;0.95;;;22.90;9.00;;;;;;4972123;28;34080;-77
2022/05/26 10:27:46;;;;;;;2.30;0.80;;;22.50;6.30;;;;;;4990443;28;34290;-76
2022/05/26 10:30:24;;;;;;;3.28;1.17;;;22.20;9.90;;;;;;4970535;28;36603;-79
2022/05/26 10:33:17;;;;;;;1.00;0.80;;;22.10;9.10;;;;;;4991322;28;34671;-79
2022/05/26 10:36:13;;;;;;;3.13;1.00;;;22.50;9.60;;;;;;5000265;28;34295;-79
2022/05/26 10:39:01;;;;;;;1.27;0.80;;;22.80;7.00;;;;;;4993168;28;34571;-79
2022/05/26 10:41:48;;;;;;;4.05;1.00;;;23.30;9.10;;;;;;4993344;28;34432;-77
2022/05/26 10:44:34;;;;;;;4.38;1.20;;;23.70;7.40;;;;;;4990745;28;34304;-77
2022/05/26 10:47:15;;;;;;;1.52;1.05;;;23.80;6.70;;;;;;4963467;28;34255;-80
2022/05/26 10:49:47;;;;;;;1.67;0.88;;;24.20;6.00;;;;;;4975917;28;34324;-77
2022/05/26 10:52:22;;;;;;;2.40;1.20;;;24.30;8.10;;;;;;5009653;28;35666;-77
2022/05/26 10:55:06;;;;;;;0.88;0.80;;;24.40;7.50;;;;;;5011179;28;34508;-77
2022/05/26 10:57:49;;;;;;;1.63;0.90;;;24.50;4.20;;;;;;5005654;28;34360;-77
2022/05/26 11:00:23;;;;;;;2.92;1.10;;;24.30;6.10;;;;;;4990807;28;34140;-78
2022/05/26 11:03:09;;;;;;;1.65;1.25;;;24.00;5.30;;;;;;5005457;28;35944;-76
2022/05/26 11:05:42;;;;;;;2.05;1.10;;;23.60;6.80;;;;;;4996503;28;34256;-79
2022/05/26 11:08:34;;;;;;;2.80;1.00;;;23.50;6.70;;;;;;5006772;28;34222;-80
2022/05/26 11:11:20;;;;;;;4.40;1.10;;;23.60;5.30;;;;;;4998501;28;34242;-79
2022/05/26 11:14:02;;;;;;;1.33;1.00;;;23.90;5.40;;;;;;5024546;28;34074;-79
2022/05/26 11:19:39;;;;;;;3.08;1.08;;;24.60;3.40;;;;;;5023825;28;34529;-80
2022/05/26 11:22:11;;;;;;;3.05;0.98;;;24.90;5.30;;;;;;4979053;28;34521;-77
2022/05/26 11:24:38;;;;;;;3.97;0.77;;;25.10;6.40;;;;;;4995414;28;35927;-78
2022/05/26 11:27:15;;;;;;;1.50;0.93;;;25.10;6.30;;;;;;5023410;28;34190;-78
2022/05/26 11:29:50;;;;;;;2.15;0.80;;;25.00;1.30;;;;;;5009531;28;34415;-76
2022/05/26 11:38:15;;;;;;;2.10;0.93;;;25.00;3.10;;;;;;5042880;28;34226;-78
2022/05/26 11:40:52;;;;;;;3.45;1.02;;;24.70;5.10;;;;;;5016696;28;34276;-82
2022/05/26 11:43:29;;;;;;;3.90;1.10;;;24.30;4.90;;;;;;5003396;28;34426;-77
2022/05/26 11:45:58;;;;;;;2.55;1.10;;;23.80;5.60;;;;;;5016726;28;36881;-77
2022/05/26 11:48:45;;;;;;;2.85;1.08;;;23.60;6.60;;;;;;5020081;28;34297;-77
2022/05/26 11:51:27;;;;;;;2.25;0.93;;;23.60;5.60;;;;;;5012038;28;34583;-79
2022/05/26 11:53:53;;;;;;;2.85;1.02;;;23.70;4.80;;;;;;5012116;28;35214;-78
2022/05/26 11:56:42;;;;;;;2.92;1.10;;;24.10;7.10;;;;;;5026428;28;34393;-77
2022/05/26 11:59:42;;;;;;;3.75;0.90;;;24.40;5.10;;;;;;5003352;28;34276;-77
2022/05/26 12:02:15;;;;;;;3.70;0.80;;;24.50;3.70;;;;;;5011666;28;34119;-77
2022/05/26 12:04:45;;;;;;;2.38;1.02;;;24.40;3.90;;;;;;4998551;28;34463;-78
2022/05/26 12:07:35;;;;;;;2.90;1.08;;;24.30;6.10;;;;;;5020254;28;34261;-77
2022/05/26 12:10:17;;;;;;;3.72;1.00;;;24.00;1.80;;;;;;4978987;28;34393;-75
2022/05/26 12:15:27;;;;;;;4.03;0.98;;;23.60;6.90;;;;;;5022790;28;34287;-78
2022/05/26 12:17:56;;;;;;;1.10;0.80;;;23.50;6.60;;;;;;4990021;28;36711;-79
2022/05/26 12:20:33;;;;;;;2.22;1.08;;;23.50;6.50;;;;;;5013927;28;34241;-77
2022/05/26 12:23:18;;;;;;;2.45;1.05;;;23.80;5.30;;;;;;4998324;28;34288;-79
2022/05/26 12:25:46;;;;;;;2.42;0.95;;;24.10;6.00;;;;;;5007105;28;34132;-77
2022/05/26 12:28:31;;;;;;;4.07;0.90;;;24.30;6.70;;;;;;5008525;28;36314;-76
2022/05/26 12:31:07;;;;;;;2.00;0.80;;;24.20;2.30;;;;;;5015110;28;34376;-77
2022/05/26 12:33:56;;;;;;;2.97;0.82;;;24.40;3.40;;;;;;5015444;28;34382;-77
2022/05/26 12:36:48;;;;;;;2.58;0.90;;;24.40;3.10;;;;;;5017627;28;34119;-77
2022/05/26 12:39:34;;;;;;;1.90;0.85;;;24.50;3.60;;;;;;5015494;28;34274;-78
2022/05/26 12:42:21;;;;;;;0.82;0.60;;;24.40;2.80;;;;;;4993527;28;34622;-78
2022/05/26 12:45:17;;;;;;;3.05;0.80;;;24.40;4.90;;;;;;5008234;28;34525;-78
2022/05/26 12:48:09;;;;;;;1.90;0.80;;;24.60;3.00;;;;;;5006946;28;34441;-79
2022/05/26 12:50:43;;;;;;;2.17;0.90;;;24.80;3.60;;;;;;4998490;28;35830;-78
2022/05/26 12:53:21;;;;;;;2.55;1.00;;;24.90;4.10;;;;;;4984284;28;34284;-78
2022/05/26 12:55:57;;;;;;;0.80;0.80;;;24.90;3.20;;;;;;4990876;28;34373;-77
2022/05/26 12:58:35;;;;;;;1.98;0.98;;;24.80;3.30;;;;;;4988434;28;34187;-80
2022/05/26 13:01:04;;;;;;;2.22;1.00;;;24.70;3.60;;;;;;4971151;28;36455;-80
2022/05/26 13:03:43;;;;;;;1.95;0.88;;;24.80;4.40;;;;;;4979952;28;34223;-77
2022/05/26 13:06:27;;;;;;;2.40;0.60;;;24.80;2.10;;;;;;4990601;28;34171;-79
2022/05/26 13:09:14;;;;;;;3.13;1.10;;;24.90;4.20;;;;;;4951836;28;34091;-77
2022/05/26 13:11:52;;;;;;;1.33;0.93;;;24.90;1.60;;;;;;4967827;28;36553;-76
2022/05/26 13:14:31;;;;;;;1.52;0.80;;;24.70;2.20;;;;;;4981765;28;34336;-76
2022/05/26 13:17:03;;;;;;;1.73;0.80;;;24.70;3.00;;;;;;4978891;28;34088;-75
2022/05/26 13:19:29;;;;;;;2.25;1.10;;;24.60;4.40;;;;;;4992047;28;34333;-76
2022/05/26 13:21:56;;;;;;;2.22;0.93;;;24.60;4.50;;;;;;4992713;28;34254;-74
2022/05/26 13:24:27;;;;;;;1.63;1.00;;;24.50;4.70;;;;;;4992719;28;34393;-79
2022/05/26 13:26:58;;;;;;;1.05;0.90;;;24.80;4.90;;;;;;4993480;28;34308;-80
2022/05/26 13:29:25;;;;;;;3.00;1.08;;;25.10;4.00;;;;;;4984992;28;34476;-77
2022/05/26 13:34:42;;;;;;;2.90;1.00;;;25.50;3.60;;;;;;5008391;28;34427;-78
2022/05/26 13:37:23;;;;;;;1.65;0.82;;;25.70;3.90;;;;;;4982318;28;34111;-78
2022/05/26 13:40:09;;;;;;;2.30;1.13;;;25.70;2.00;;;;;;4999697;28;34412;-76
2022/05/26 13:42:38;;;;;;;3.10;1.05;;;25.40;1.30;;;;;;4979745;28;35654;-77
2022/05/26 13:45:08;;;;;;;1.75;0.77;;;25.10;3.10;;;;;;4975322;28;34256;-77
2022/05/26 13:47:34;;;;;;;2.03;1.00;;;24.90;4.10;;;;;;4975459;28;34142;-76
2022/05/26 13:50:07;;;;;;;3.35;1.00;;;24.70;4.40;;;;;;4983970;28;34456;-77
2022/05/26 13:52:37;;;;;;;1.00;0.90;;;24.70;3.90;;;;;;5007259;28;35965;-77
2022/05/26 13:55:17;;;;;;;6.22;0.85;;;24.70;4.60;;;;;;4997554;28;34276;-74
2022/05/26 13:57:47;;;;;;;2.08;0.90;;;24.80;3.80;;;;;;4999501;28;34318;-78
2022/05/26 14:00:32;;;;;;;1.50;1.08;;;24.60;4.50;;;;;;5015646;28;34151;-76
2022/05/26 14:03:01;;;;;;;2.40;1.10;;;24.40;3.10;;;;;;5014766;28;35548;-78
2022/05/26 14:05:32;;;;;;;1.67;0.80;;;24.30;4.40;;;;;;4987798;28;34459;-77
2022/05/26 14:08:08;;;;;;;3.05;0.70;;;24.30;4.00;;;;;;5005882;28;33944;-78
2022/05/26 14:10:50;;;;;;;2.67;1.10;;;24.40;3.70;;;;;;5024336;28;34070;-77